createdAt,value
2018-02-03T00:09:28.950Z,72.70
2018-02-03T00:11:59.097Z,72.80
2018-02-03T00:14:27.845Z,73.00
2018-02-03T00:16:56.816Z,73.30
2018-02-03T00:19:25.729Z,73.60
2018-02-03T00:21:55.325Z,73.90
2018-02-03T00:24:25.251Z,74.20
2018-02-03T00:26:55.349Z,74.50
2018-02-03T00:29:23.664Z,74.80
2018-02-03T00:49:11.886Z,76.40
2018-02-03T00:51:42.205Z,76.90
2018-02-03T00:54:10.261Z,76.80
2018-02-03T00:56:39.253Z,77.20
2018-02-03T00:59:07.477Z,77.60
2018-02-03T01:01:35.923Z,77.70
2018-02-03T01:04:04.677Z,78.00
2018-02-03T01:06:33.016Z,77.90
2018-02-03T01:26:18.445Z,78.20
2018-02-03T01:28:47.583Z,78.30
2018-02-03T01:31:16.088Z,78.30
2018-02-03T01:33:45.474Z,78.20
2018-02-03T01:36:14.645Z,77.80
2018-02-03T01:38:43.158Z,77.50
2018-02-03T01:41:11.966Z,77.40
2018-02-03T01:43:41.266Z,77.50
2018-02-03T01:46:09.989Z,77.10
2018-02-03T02:05:58.631Z,78.90
2018-02-03T02:08:27.886Z,79.30
2018-02-03T02:10:56.824Z,79.00
2018-02-03T02:13:26.144Z,79.80
2018-02-03T02:15:55.089Z,79.80
2018-02-03T02:18:24.515Z,80.10
2018-02-03T02:20:54.109Z,79.80
2018-02-03T02:23:22.777Z,79.90
2018-02-03T02:25:51.620Z,79.50
2018-02-03T02:45:35.888Z,77.60
2018-02-03T02:48:04.104Z,78.20
2018-02-03T02:50:32.872Z,77.70
2018-02-03T02:53:01.181Z,77.50
2018-02-03T02:55:30.778Z,77.40
2018-02-03T02:57:59.034Z,77.10
2018-02-03T03:00:28.144Z,77.40
2018-02-03T03:02:57.382Z,77.10
2018-02-03T03:05:26.035Z,77.20
2018-02-03T03:25:12.009Z,76.20
2018-02-03T03:27:40.491Z,76.60
2018-02-03T03:30:10.166Z,76.90
2018-02-03T03:32:39.356Z,76.80
2018-02-03T03:35:08.683Z,76.60
2018-02-03T03:37:37.796Z,76.70
2018-02-03T03:40:06.074Z,76.60
2018-02-03T03:42:35.467Z,76.50
2018-02-03T03:45:05.238Z,76.50
2018-02-03T04:04:50.246Z,77.70
2018-02-03T04:07:18.596Z,77.60
2018-02-03T04:09:47.196Z,77.90
2018-02-03T04:12:16.836Z,77.70
2018-02-03T04:14:44.947Z,77.70
2018-02-03T04:17:13.656Z,77.50
2018-02-03T04:19:42.333Z,78.20
2018-02-03T04:22:11.803Z,78.10
2018-02-03T04:24:40.552Z,78.00
2018-02-03T04:44:26.555Z,78.00
2018-02-03T04:46:55.270Z,77.90
2018-02-03T04:49:23.794Z,77.90
2018-02-03T04:51:53.386Z,78.10
2018-02-03T04:54:21.954Z,78.00
2018-02-03T04:56:50.455Z,78.50
2018-02-03T04:59:19.166Z,77.60
2018-02-03T05:01:48.104Z,77.80
2018-02-03T05:04:17.057Z,77.10
2018-02-03T05:24:03.425Z,77.80
2018-02-03T05:26:32.402Z,77.90
2018-02-03T05:29:01.464Z,77.70
2018-02-03T05:31:30.334Z,77.70
2018-02-03T05:33:58.595Z,77.90
2018-02-03T05:36:26.938Z,78.10
2018-02-03T05:38:55.571Z,78.20
2018-02-03T05:41:24.174Z,78.30
2018-02-03T05:43:53.742Z,77.90
2018-02-03T06:03:39.582Z,76.10
2018-02-03T06:06:08.779Z,76.00
2018-02-03T06:08:37.081Z,76.10
2018-02-03T06:11:06.425Z,75.70
2018-02-03T06:13:34.930Z,75.80
2018-02-03T06:16:03.115Z,75.70
2018-02-03T06:18:32.433Z,76.30
2018-02-03T06:21:01.610Z,76.70
2018-02-03T06:23:29.816Z,76.60
2018-02-03T06:43:16.412Z,77.50
2018-02-03T06:45:45.453Z,76.80
2018-02-03T06:48:14.362Z,76.90
2018-02-03T06:50:42.540Z,77.00
2018-02-03T06:53:11.225Z,77.00
2018-02-03T06:55:40.773Z,76.70
2018-02-03T06:58:09.416Z,76.60
2018-02-03T07:00:39.978Z,76.40
2018-02-03T07:03:09.062Z,76.40
2018-02-03T07:22:54.748Z,77.20
2018-02-03T07:25:23.121Z,77.40
2018-02-03T07:27:51.884Z,77.40
2018-02-03T07:30:21.107Z,77.20
2018-02-03T07:32:49.804Z,77.20
2018-02-03T07:35:18.222Z,76.80
2018-02-03T07:37:47.205Z,76.40
2018-02-03T07:40:15.300Z,76.00
2018-02-03T07:42:44.602Z,75.50
2018-02-03T08:02:31.561Z,73.30
2018-02-03T08:05:00.917Z,73.10
2018-02-03T08:07:29.545Z,72.00
2018-02-03T08:09:58.626Z,72.20
2018-02-03T08:12:27.096Z,73.00
2018-02-03T08:14:55.831Z,72.60
2018-02-03T08:17:23.995Z,72.10
2018-02-03T08:19:53.518Z,71.90
2018-02-03T08:22:21.681Z,71.50
2018-02-03T08:42:06.869Z,71.20
2018-02-03T08:44:36.430Z,70.50
2018-02-03T08:47:04.906Z,70.20
2018-02-03T08:49:34.063Z,71.10
2018-02-03T08:52:03.444Z,71.70
2018-02-03T08:54:33.192Z,71.70
2018-02-03T08:57:01.500Z,71.20
2018-02-03T08:59:30.413Z,70.90
2018-02-03T09:01:58.680Z,70.40
2018-02-03T09:21:44.581Z,71.00
2018-02-03T09:24:14.046Z,70.20
2018-02-03T09:26:42.256Z,69.70
2018-02-03T09:29:13.171Z,68.90
2018-02-03T09:31:41.436Z,68.90
2018-02-03T09:34:10.154Z,69.00
2018-02-03T09:36:39.334Z,69.30
2018-02-03T09:39:08.756Z,68.40
2018-02-03T09:41:37.243Z,68.50
2018-02-03T10:01:24.348Z,69.80
2018-02-03T10:03:52.516Z,69.50
2018-02-03T10:06:21.467Z,70.00
2018-02-03T10:08:49.982Z,70.00
2018-02-03T10:11:18.872Z,69.90
2018-02-03T10:13:47.473Z,69.10
2018-02-03T10:16:16.539Z,69.50
2018-02-03T10:18:45.005Z,69.50
2018-02-03T10:21:13.553Z,69.50
2018-02-03T10:40:59.078Z,69.30
2018-02-03T10:43:27.953Z,70.20
2018-02-03T10:45:56.363Z,70.00
2018-02-03T10:48:25.739Z,69.40
2018-02-03T10:50:54.934Z,69.30
2018-02-03T10:53:23.936Z,69.30
2018-02-03T10:55:53.199Z,68.90
2018-02-03T10:58:21.717Z,69.30
2018-02-03T11:00:50.440Z,68.90
2018-02-03T11:20:36.059Z,67.90
2018-02-03T11:23:04.600Z,67.20
2018-02-03T11:25:33.873Z,66.60
2018-02-03T11:28:03.742Z,63.10
2018-02-03T11:30:33.398Z,60.90
2018-02-03T11:33:01.999Z,62.30
2018-02-03T11:35:30.197Z,61.40
2018-02-03T11:37:59.720Z,62.20
2018-02-03T11:40:28.649Z,62.50
2018-02-03T12:00:13.294Z,62.80
2018-02-03T12:02:42.574Z,63.30
2018-02-03T12:05:11.256Z,62.90
2018-02-03T12:07:41.588Z,63.30
2018-02-03T12:10:10.859Z,63.60
2018-02-03T12:12:39.038Z,61.70
2018-02-03T12:15:07.389Z,60.00
2018-02-03T12:17:35.922Z,59.50
2018-02-03T12:20:04.684Z,59.60
2018-02-03T12:39:50.967Z,58.80
2018-02-03T12:42:20.593Z,58.70
2018-02-03T12:44:50.234Z,58.20
2018-02-03T12:47:19.347Z,58.20
2018-02-03T12:49:47.679Z,58.50
2018-02-03T12:52:17.997Z,58.90
2018-02-03T12:54:47.322Z,58.30
2018-02-03T12:57:16.378Z,57.90
2018-02-03T13:20:31.677Z,58.00
2018-02-03T13:23:00.678Z,57.10
2018-02-03T13:25:29.435Z,56.40
2018-02-03T13:27:58.366Z,56.40
2018-02-03T13:30:28.510Z,57.80
2018-02-03T13:32:57.508Z,58.70
2018-02-03T13:35:26.127Z,58.60
2018-02-03T13:37:54.444Z,59.40
2018-02-03T13:40:23.335Z,59.20
2018-02-03T14:00:11.191Z,61.20
2018-02-03T14:02:40.563Z,61.40
2018-02-03T14:05:09.488Z,60.50
2018-02-03T14:07:37.581Z,59.20
2018-02-03T14:10:06.210Z,58.30
2018-02-03T14:12:36.154Z,58.40
2018-02-03T14:15:05.087Z,58.40
2018-02-03T14:17:33.320Z,58.20
2018-02-03T14:20:02.372Z,57.50
2018-02-03T14:39:46.824Z,57.90
2018-02-03T14:42:17.014Z,58.40
2018-02-03T14:44:45.630Z,58.40
2018-02-03T14:47:14.298Z,58.20
2018-02-03T14:49:42.600Z,58.90
2018-02-03T14:52:11.465Z,58.40
2018-02-03T14:54:41.686Z,58.10
2018-02-03T14:57:11.243Z,59.10
2018-02-03T14:59:40.684Z,58.90
2018-02-03T15:19:26.656Z,65.60
2018-02-03T15:21:55.078Z,66.30
2018-02-03T15:24:23.450Z,66.90
2018-02-03T15:26:52.435Z,67.20
2018-02-03T15:29:20.850Z,66.90
2018-02-03T15:31:50.062Z,66.70
2018-02-03T15:34:19.691Z,67.40
2018-02-03T15:36:49.123Z,66.90
2018-02-03T15:39:18.302Z,68.10
2018-02-03T15:59:04.210Z,69.90
2018-02-03T16:01:33.718Z,70.10
2018-02-03T16:04:02.108Z,71.10
2018-02-03T16:06:30.350Z,71.10
2018-02-03T16:08:59.072Z,71.10
2018-02-03T16:11:28.380Z,71.30
2018-02-03T16:13:57.039Z,71.70
2018-02-03T16:16:26.135Z,72.50
2018-02-03T16:18:54.721Z,72.40
2018-02-03T16:38:41.481Z,74.60
2018-02-03T16:41:10.360Z,75.40
2018-02-03T16:43:38.742Z,75.60
2018-02-03T16:46:06.923Z,75.80
2018-02-03T16:48:35.561Z,76.00
2018-02-03T16:51:05.229Z,76.20
2018-02-03T16:53:33.642Z,76.60
2018-02-03T16:56:02.710Z,76.40
2018-02-03T16:58:31.233Z,76.30
2018-02-03T17:18:17.161Z,75.80
2018-02-03T17:20:45.401Z,75.60
2018-02-03T17:23:15.078Z,75.20
2018-02-03T17:25:43.807Z,75.40
2018-02-03T17:28:12.351Z,75.20
2018-02-03T17:30:41.593Z,75.10
2018-02-03T17:33:10.396Z,75.50
2018-02-03T17:35:39.096Z,76.00
2018-02-03T17:38:09.014Z,75.80
2018-02-03T17:57:55.400Z,76.80
2018-02-03T18:00:23.965Z,76.70
2018-02-03T18:02:52.400Z,77.20
2018-02-03T18:05:21.199Z,76.90
2018-02-03T18:07:49.441Z,76.40
2018-02-03T18:10:19.101Z,77.00
2018-02-03T18:12:48.222Z,76.80
2018-02-03T18:15:16.730Z,76.80
2018-02-03T18:17:45.798Z,76.60
2018-02-03T18:37:32.337Z,76.60
2018-02-03T18:40:00.584Z,77.00
2018-02-03T18:42:29.008Z,76.70
2018-02-03T18:44:57.485Z,76.80
2018-02-03T18:47:25.654Z,76.70
2018-02-03T18:49:54.757Z,76.50
2018-02-03T18:52:23.968Z,76.90
2018-02-03T18:54:52.480Z,76.70
2018-02-03T18:57:21.001Z,76.60
2018-02-03T19:17:05.610Z,76.40
2018-02-03T19:19:34.273Z,76.30
2018-02-03T19:22:02.764Z,76.50
2018-02-03T19:24:31.806Z,76.60
2018-02-03T19:27:00.690Z,77.00
2018-02-03T19:29:30.175Z,77.10
2018-02-03T19:31:59.854Z,77.00
2018-02-03T19:34:28.782Z,76.90
2018-02-03T19:36:57.819Z,77.60
2018-02-03T19:56:43.535Z,77.20
2018-02-03T19:59:11.919Z,77.00
2018-02-03T20:01:41.955Z,77.20
2018-02-03T20:04:11.143Z,77.20
2018-02-03T20:06:40.530Z,77.50
2018-02-03T20:09:09.405Z,77.80
2018-02-03T20:11:38.764Z,77.70
2018-02-03T20:14:07.787Z,77.70
2018-02-03T20:16:36.510Z,77.50
2018-02-03T20:36:22.503Z,77.20
2018-02-03T20:38:51.846Z,77.30
2018-02-03T20:41:20.558Z,77.60
2018-02-03T20:43:48.672Z,77.70
2018-02-03T20:46:16.916Z,78.00
2018-02-03T20:48:46.053Z,78.40
2018-02-03T20:51:17.077Z,78.40
2018-02-03T20:53:45.739Z,78.30
2018-02-03T20:56:17.094Z,77.70
2018-02-03T21:16:03.052Z,79.10
2018-02-03T21:18:31.732Z,78.70
2018-02-03T21:21:01.033Z,78.80
2018-02-03T21:23:29.803Z,79.00
2018-02-03T21:25:58.352Z,78.80
2018-02-03T21:28:26.980Z,78.30
2018-02-03T21:30:56.294Z,78.10
2018-02-03T21:33:25.346Z,78.30
2018-02-03T21:35:54.934Z,77.60
2018-02-03T21:55:39.483Z,78.70
2018-02-03T21:58:08.539Z,78.60
2018-02-03T22:00:42.205Z,78.70
2018-02-03T22:03:10.738Z,79.00
2018-02-03T22:05:40.138Z,79.00
2018-02-03T22:08:09.159Z,78.90
2018-02-03T22:10:37.791Z,78.90
2018-02-03T22:13:06.119Z,79.00
2018-02-03T22:37:01.941Z,79.60
2018-02-03T22:39:32.411Z,79.70
2018-02-03T22:42:01.229Z,79.70
2018-02-03T22:44:29.651Z,80.00
2018-02-03T22:46:59.129Z,79.80
2018-02-03T22:49:28.708Z,80.00
2018-02-03T22:51:58.310Z,79.50
2018-02-03T22:54:27.081Z,79.90
2018-02-03T22:56:56.442Z,80.40
2018-02-03T23:16:41.526Z,81.90
2018-02-03T23:19:10.743Z,82.00
2018-02-03T23:21:38.905Z,82.50
2018-02-03T23:24:08.215Z,82.90
2018-02-03T23:26:37.114Z,82.70
2018-02-03T23:29:05.814Z,83.00
2018-02-03T23:31:34.323Z,83.70
2018-02-03T23:34:03.907Z,83.70
2018-02-03T23:36:32.317Z,83.70
2018-02-03T23:56:17.417Z,84.70
2018-02-03T23:58:46.911Z,84.60
